Branson, MO

10:11 PM CST on February 21, 2017 (GMT -0600)
McGoldrick | | Change Station
Active Advisory: Dense Fog Advisory

Elev 912 ft 36.65 °N, 93.20 °W | Updated 4 seconds ago

Mostly Cloudy
Mostly Cloudy
58.7 °F
Feels Like 58.7 °F
N
1.0
Wind Variable Wind from ESE
Gusts 6.0 mph

Today
High -- | Low -- °F
--% Chance of Precip.
Yesterday
High -- | Low -- °F
Precip. -- in
Pressure 29.93 in
Visibility 10.0 miles
Clouds Mostly Cloudy 1800 ft
Overcast 3500 ft
Dew Point 56 °F
Humidity 90%
Rainfall 0.11 in
Snow Depth Not available.
6:53 AM 5:59 PM
Waning Crescent, 20% visible
METAR KBBG 220355Z AUTO 09005KT 10SM BKN018 OVC035 14/14 A2993 RMK AO2
Pressure 29.93 in
Visibility 10.0 miles
Clouds Mostly Cloudy 1800 ft
Overcast 3500 ft
Dew Point 56 °F
Humidity 90%
Rainfall 0.11 in
Snow Depth Not available.
6:53 AM 5:59 PM
Waning Crescent, 20% visible
METAR KBBG 220355Z AUTO 09005KT 10SM BKN018 OVC035 14/14 A2993 RMK AO2

Get Your Daily Forecast Email!

Thanks for signing up!

Be on the lookout for a verification email in your inbox.

You'll start receiving the daily forecast at 8 AM.

×

10-Day Weather Forecast

Almanac

Astronomy

Feb. 21, 2017 Rise Set
Actual Time
Civil Twilight
Nautical Twilight
Astronomical Twilight
Moon
Length of Visible Light
Length of Day
Tomorrow will be .
, % of the Moon is Illuminated

Today's Extremes

State Highs State Lows

Community

WunderPhotos

Upload Photos

1,962,540 photos uploaded!

WunderBlog® & News

Nearby

Air Quality

  Air Quality AQ Index Pollutant
Not available.

Snow Depth

Station Depth Elevation

Earthquake Activity

City Distance Mag. Time & Date
Minimum magnitude displayed is 2.5.

Coastal Water Temperatures

Place Temperature

Stations

Nearby Weather Stations

Station Location Temp. Windchill Dew Point Humidity Wind Precip. Elev Updated Type
                   

Watches & Warnings

Dense Fog Advisory
Issued: 9:33 PM CST Feb. 21, 2017 – National Weather Service

... Dense fog advisory now in effect until 9 am CST Wednesday...

* visibility... areas of dense fog will develop tonight and reduce
visibility to near one quarter mile or less across
southwest... central and south central Missouri through early
Wednesday morning.


* Impacts... reductions in visibility will occur over short
distances. Areas of dense fog will impact travel on Highway 60,
Highway 65, Highway 13, and Highway 63 as well as Interstate 44.


Precautionary/preparedness actions...

A dense fog advisory means visibilities will frequently be
reduced to less than one quarter mile. If driving, slow down, use
your headlights, and leave plenty of distance between your vehicle
and others ahead of you.



Terry